createdAt,value
2018-12-30T00:00:44.831Z,8.61
2018-12-30T00:01:44.140Z,8.58
2018-12-30T00:02:44.845Z,8.58
2018-12-30T00:03:45.137Z,8.63
2018-12-30T00:04:44.970Z,8.56
2018-12-30T00:05:44.473Z,8.61
2018-12-30T00:06:44.979Z,8.66
2018-12-30T00:07:44.441Z,8.61
2018-12-30T00:08:44.465Z,8.58
2018-12-30T00:09:45.102Z,8.63
2018-12-30T00:10:44.513Z,8.58
2018-12-30T00:11:44.529Z,8.63
2018-12-30T00:12:44.663Z,8.58
2018-12-30T00:13:44.942Z,8.64
2018-12-30T00:14:44.567Z,8.61
2018-12-30T00:15:44.890Z,8.67
2018-12-30T00:16:44.356Z,8.56
2018-12-30T00:17:44.619Z,8.55
2018-12-30T00:18:44.372Z,8.56
2018-12-30T00:19:47.044Z,8.63
2018-12-30T00:20:44.707Z,8.58
2018-12-30T00:21:44.974Z,8.58
2018-12-30T00:22:44.991Z,8.58
2018-12-30T00:23:44.740Z,8.66
2018-12-30T00:24:45.051Z,8.64
2018-12-30T00:25:44.783Z,8.63
2018-12-30T00:26:45.033Z,8.61
2018-12-30T00:27:45.287Z,8.67
2018-12-30T00:28:44.825Z,8.64
2018-12-30T00:29:44.631Z,8.6
2018-12-30T00:30:44.613Z,8.67
2018-12-30T00:31:44.882Z,8.61
2018-12-30T00:32:45.169Z,8.6
2018-12-30T00:33:44.656Z,8.7
2018-12-30T00:34:44.949Z,8.63
2018-12-30T00:35:44.950Z,8.71
2018-12-30T00:36:45.595Z,8.67
2018-12-30T00:37:44.732Z,8.63
2018-12-30T00:38:44.768Z,8.63
2018-12-30T00:39:45.297Z,8.64
2018-12-30T00:40:45.042Z,8.67
2018-12-30T00:41:45.074Z,8.6
2018-12-30T00:42:45.077Z,8.64
2018-12-30T00:43:44.838Z,8.63
2018-12-30T00:44:45.353Z,8.64
2018-12-30T00:45:44.887Z,8.67
2018-12-30T00:46:45.403Z,8.71
2018-12-30T00:47:45.161Z,8.66
2018-12-30T00:48:45.497Z,8.61
2018-12-30T00:49:44.944Z,8.7
2018-12-30T00:50:45.271Z,8.73
2018-12-30T00:51:45.232Z,8.64
2018-12-30T00:52:45.691Z,8.58
2018-12-30T00:53:45.264Z,8.66
2018-12-30T00:54:45.289Z,8.63
2018-12-30T00:55:45.063Z,8.64
2018-12-30T00:56:45.048Z,8.61
2018-12-30T00:57:45.360Z,8.67
2018-12-30T00:58:45.620Z,8.66
2018-12-30T00:59:45.401Z,8.74
2018-12-30T01:00:45.647Z,8.66
2018-12-30T01:01:45.161Z,8.64
2018-12-30T01:02:45.194Z,8.67
2018-12-30T01:03:47.044Z,8.66
2018-12-30T01:04:45.231Z,8.67
2018-12-30T01:05:45.513Z,8.67
2018-12-30T01:06:45.249Z,8.7
2018-12-30T01:07:45.780Z,8.7
2018-12-30T01:08:45.780Z,8.7
2018-12-30T01:09:45.653Z,8.64
2018-12-30T01:10:45.859Z,8.69
2018-12-30T01:11:45.604Z,8.71
2018-12-30T01:12:45.374Z,8.7
2018-12-30T01:13:45.645Z,8.78
2018-12-30T01:14:45.655Z,8.66
2018-12-30T01:15:45.424Z,8.67
2018-12-30T01:16:45.747Z,8.69
2018-12-30T01:17:46.215Z,8.71
2018-12-30T01:18:45.746Z,8.69
2018-12-30T01:19:45.484Z,8.67
2018-12-30T01:20:45.757Z,8.7
2018-12-30T01:21:45.773Z,8.74
2018-12-30T01:22:45.792Z,8.76
2018-12-30T01:23:45.813Z,8.69
2018-12-30T01:24:45.570Z,8.74
2018-12-30T01:25:46.281Z,8.73
2018-12-30T01:26:45.853Z,8.7
2018-12-30T01:27:45.888Z,8.74
2018-12-30T01:28:45.884Z,8.67
2018-12-30T01:29:45.843Z,8.74
2018-12-30T01:30:45.938Z,8.63
2018-12-30T01:31:45.936Z,8.66
2018-12-30T01:32:46.000Z,8.64
2018-12-30T01:33:45.814Z,8.67
2018-12-30T01:34:46.619Z,8.66
2018-12-30T01:35:45.782Z,8.64
2018-12-30T01:36:45.783Z,8.66
2018-12-30T01:37:46.040Z,8.71
2018-12-30T01:38:45.805Z,8.69
2018-12-30T01:39:45.864Z,8.66
2018-12-30T01:40:46.360Z,8.64
2018-12-30T01:41:46.390Z,8.64
2018-12-30T01:42:46.749Z,8.71
2018-12-30T01:43:45.904Z,8.67
2018-12-30T01:44:46.179Z,8.63
2018-12-30T01:45:45.948Z,8.64
2018-12-30T01:46:45.987Z,8.69
2018-12-30T01:47:46.240Z,8.67
2018-12-30T01:48:46.265Z,8.66
2018-12-30T01:49:46.270Z,8.64
2018-12-30T01:50:46.024Z,8.66
2018-12-30T01:51:46.379Z,8.64
2018-12-30T01:52:46.334Z,8.66
2018-12-30T01:53:46.096Z,8.67
2018-12-30T01:54:46.695Z,8.73
2018-12-30T01:55:46.390Z,8.66
2018-12-30T01:56:46.391Z,8.69
2018-12-30T01:57:46.436Z,8.67
2018-12-30T01:58:46.447Z,8.63
2018-12-30T01:59:47.271Z,8.64
2018-12-30T02:00:46.322Z,8.64
2018-12-30T02:01:46.226Z,8.69
2018-12-30T02:02:46.514Z,8.66
2018-12-30T02:03:46.773Z,8.7
2018-12-30T02:04:46.811Z,8.69
2018-12-30T02:05:46.294Z,8.71
2018-12-30T02:06:46.559Z,8.71
2018-12-30T02:07:46.333Z,8.64
2018-12-30T02:08:46.850Z,8.74
2018-12-30T02:09:46.880Z,8.69
2018-12-30T02:10:46.679Z,8.69
2018-12-30T02:11:46.637Z,8.63
2018-12-30T02:12:46.671Z,8.78
2018-12-30T02:13:46.435Z,8.7
2018-12-30T02:14:46.981Z,8.78
2018-12-30T02:15:46.747Z,8.71
2018-12-30T02:16:46.973Z,8.76
2018-12-30T02:17:46.764Z,8.73
2018-12-30T02:18:46.788Z,8.78
2018-12-30T02:19:46.532Z,8.73
2018-12-30T02:20:47.060Z,8.78
2018-12-30T02:21:46.836Z,8.73
2018-12-30T02:22:46.584Z,8.7
2018-12-30T02:23:46.640Z,8.7
2018-12-30T02:24:46.894Z,8.74
2018-12-30T02:25:47.211Z,8.76
2018-12-30T02:26:46.663Z,8.76
2018-12-30T02:27:47.205Z,8.78
2018-12-30T02:28:47.222Z,8.76
2018-12-30T02:29:46.727Z,8.79
2018-12-30T02:30:47.002Z,8.76
2018-12-30T02:31:46.745Z,8.73
2018-12-30T02:32:47.053Z,8.76
2018-12-30T02:33:46.794Z,8.79
2018-12-30T02:34:47.924Z,8.78
2018-12-30T02:35:47.086Z,8.78
2018-12-30T02:36:46.829Z,8.79
2018-12-30T02:37:47.406Z,8.87
2018-12-30T02:38:46.990Z,8.74
2018-12-30T02:39:46.913Z,8.76
2018-12-30T02:40:47.182Z,8.81
2018-12-30T02:41:47.220Z,8.78
2018-12-30T02:42:47.473Z,8.78
2018-12-30T02:43:48.098Z,8.74
2018-12-30T02:44:46.996Z,8.78
2018-12-30T02:45:47.284Z,8.74
2018-12-30T02:46:47.016Z,8.76
2018-12-30T02:47:47.567Z,8.7
2018-12-30T02:48:47.061Z,8.76
2018-12-30T02:49:47.343Z,8.73
2018-12-30T02:50:47.095Z,8.71
2018-12-30T02:51:54.722Z,8.81
2018-12-30T02:52:47.850Z,8.81
2018-12-30T02:53:47.795Z,8.81
2018-12-30T02:54:47.173Z,8.74
2018-12-30T02:55:47.183Z,8.74
2018-12-30T02:56:47.200Z,8.76
2018-12-30T02:57:47.476Z,8.74
2018-12-30T02:58:47.780Z,8.79
2018-12-30T02:59:47.518Z,8.76
2018-12-30T03:00:47.287Z,8.74
2018-12-30T03:01:48.197Z,8.78
2018-12-30T03:02:47.577Z,8.78
2018-12-30T03:03:47.314Z,8.79
2018-12-30T03:04:47.613Z,8.79
2018-12-30T03:05:47.349Z,8.76
2018-12-30T03:06:47.647Z,8.76
2018-12-30T03:07:47.699Z,8.73
2018-12-30T03:08:47.658Z,8.79
2018-12-30T03:09:47.702Z,8.81
2018-12-30T03:10:48.084Z,8.78
2018-12-30T03:11:47.718Z,8.73
2018-12-30T03:12:47.731Z,8.82
2018-12-30T03:13:47.771Z,8.79
2018-12-30T03:14:47.521Z,8.74
2018-12-30T03:15:47.545Z,8.84
2018-12-30T03:16:48.086Z,8.79
2018-12-30T03:17:47.826Z,8.74
2018-12-30T03:18:47.592Z,8.79
2018-12-30T03:19:48.393Z,8.71
2018-12-30T03:20:48.161Z,8.78
2018-12-30T03:21:47.914Z,8.71
2018-12-30T03:22:47.678Z,8.81
2018-12-30T03:23:47.930Z,8.74
2018-12-30T03:24:47.951Z,8.81
2018-12-30T03:25:47.964Z,8.7
2018-12-30T03:26:47.978Z,8.78
2018-12-30T03:27:48.026Z,8.71
2018-12-30T03:28:48.027Z,8.7
2018-12-30T03:29:48.030Z,8.73
2018-12-30T03:30:48.107Z,8.69
2018-12-30T03:31:47.834Z,8.85
2018-12-30T03:32:48.122Z,8.69
2018-12-30T03:33:48.126Z,8.73
2018-12-30T03:34:48.134Z,8.7
2018-12-30T03:35:48.164Z,8.71
2018-12-30T03:36:47.917Z,8.69
2018-12-30T03:37:48.473Z,8.71
2018-12-30T03:38:48.223Z,8.73
2018-12-30T03:39:47.963Z,8.76
2018-12-30T03:40:48.252Z,8.78
2018-12-30T03:41:48.284Z,8.78
2018-12-30T03:42:48.018Z,8.73
2018-12-30T03:43:48.025Z,8.7
2018-12-30T03:44:48.373Z,8.64
2018-12-30T03:45:48.332Z,8.73
2018-12-30T03:46:48.625Z,8.66
2018-12-30T03:47:48.376Z,8.71
2018-12-30T03:48:48.111Z,8.69
2018-12-30T03:49:48.148Z,8.67
2018-12-30T03:50:48.694Z,8.66
2018-12-30T03:51:48.457Z,8.67
2018-12-30T03:52:48.712Z,8.66
2018-12-30T03:53:48.512Z,8.67
2018-12-30T03:54:48.232Z,8.66
2018-12-30T03:55:48.512Z,8.74
2018-12-30T03:56:48.264Z,8.67
2018-12-30T03:57:48.811Z,8.7
2018-12-30T03:58:48.290Z,8.73
2018-12-30T03:59:48.326Z,8.73
2018-12-30T04:00:48.340Z,8.73
2018-12-30T04:01:48.624Z,8.73
2018-12-30T04:02:48.911Z,8.73
2018-12-30T04:03:48.393Z,8.71
2018-12-30T04:04:48.428Z,8.67
2018-12-30T04:05:48.750Z,8.7
2018-12-30T04:06:48.720Z,8.71
2018-12-30T04:07:48.461Z,8.69
2018-12-30T04:08:48.487Z,8.63
2018-12-30T04:09:48.777Z,8.76
2018-12-30T04:10:48.536Z,8.74
2018-12-30T04:11:48.810Z,8.64
2018-12-30T04:12:48.812Z,8.7
2018-12-30T04:13:48.830Z,8.74
2018-12-30T04:14:49.115Z,8.74
2018-12-30T04:15:48.874Z,8.71
2018-12-30T04:16:48.628Z,8.76
2018-12-30T04:17:48.658Z,8.74
2018-12-30T04:18:49.177Z,8.71
2018-12-30T04:19:48.693Z,8.67
2018-12-30T04:20:48.694Z,8.76
2018-12-30T04:21:48.989Z,8.71
2018-12-30T04:22:48.996Z,8.64
2018-12-30T04:23:48.745Z,8.7
2018-12-30T04:24:48.778Z,8.7
2018-12-30T04:25:48.788Z,8.64
2018-12-30T04:26:49.089Z,8.66
2018-12-30T04:27:48.882Z,8.67
2018-12-30T04:28:49.101Z,8.69
2018-12-30T04:29:49.379Z,8.69
2018-12-30T04:30:49.156Z,8.74
2018-12-30T04:31:48.893Z,8.67
2018-12-30T04:32:49.181Z,8.73
2018-12-30T04:33:48.935Z,8.76
2018-12-30T04:34:49.226Z,8.69
2018-12-30T04:35:49.509Z,8.7
2018-12-30T04:36:48.991Z,8.78
2018-12-30T04:37:49.269Z,8.7
2018-12-30T04:38:49.278Z,8.69
2018-12-30T04:39:49.573Z,8.71
2018-12-30T04:40:49.342Z,8.69
2018-12-30T04:41:49.083Z,8.66
2018-12-30T04:42:49.082Z,8.67
2018-12-30T04:43:49.102Z,8.71
2018-12-30T04:44:49.657Z,8.74
2018-12-30T04:45:49.401Z,8.67
2018-12-30T04:46:49.712Z,8.71
2018-12-30T04:47:49.712Z,8.69
2018-12-30T04:48:49.522Z,8.64
2018-12-30T04:49:49.487Z,8.71
2018-12-30T04:50:49.766Z,8.73
2018-12-30T04:51:49.526Z,8.74
2018-12-30T04:52:49.805Z,8.69
2018-12-30T04:53:49.565Z,8.7
2018-12-30T04:54:49.836Z,8.73
2018-12-30T04:55:49.599Z,8.66
2018-12-30T04:56:49.863Z,8.73
2018-12-30T04:57:49.633Z,8.76
2018-12-30T04:58:49.630Z,8.69
2018-12-30T04:59:49.683Z,8.76
2018-12-30T05:00:49.939Z,8.71
2018-12-30T05:01:49.976Z,8.73
2018-12-30T05:02:49.450Z,8.71
2018-12-30T05:03:49.981Z,8.76
2018-12-30T05:04:49.779Z,8.67
2018-12-30T05:05:49.764Z,8.71
2018-12-30T05:06:49.935Z,8.66
2018-12-30T05:07:49.806Z,8.78
2018-12-30T05:08:49.826Z,8.71
2018-12-30T05:09:49.592Z,8.69
2018-12-30T05:10:49.594Z,8.74
2018-12-30T05:11:50.148Z,8.73
2018-12-30T05:12:49.896Z,8.7
2018-12-30T05:13:49.662Z,8.7
2018-12-30T05:14:49.932Z,8.67
2018-12-30T05:15:50.204Z,8.74
2018-12-30T05:16:49.976Z,8.71
2018-12-30T05:17:49.992Z,8.73
2018-12-30T05:18:49.744Z,8.76
2018-12-30T05:19:50.038Z,8.69
2018-12-30T05:20:49.778Z,8.67
2018-12-30T05:21:49.837Z,8.64
2018-12-30T05:22:50.073Z,8.7
2018-12-30T05:23:49.827Z,8.69
2018-12-30T05:24:50.126Z,8.7
2018-12-30T05:25:50.159Z,8.7
2018-12-30T05:26:50.139Z,8.69
2018-12-30T05:27:50.192Z,8.69
2018-12-30T05:28:49.925Z,8.67
2018-12-30T05:29:50.207Z,8.63
2018-12-30T05:30:50.225Z,8.67
2018-12-30T05:31:50.392Z,8.71
2018-12-30T05:32:50.024Z,8.61
2018-12-30T05:33:50.006Z,8.69
2018-12-30T05:34:50.289Z,8.69
2018-12-30T05:35:51.251Z,8.67
2018-12-30T05:36:50.074Z,8.78
2018-12-30T05:37:50.335Z,8.66
2018-12-30T05:38:50.625Z,8.69
2018-12-30T05:39:50.110Z,8.67
2018-12-30T05:40:50.131Z,8.67
2018-12-30T05:41:50.407Z,8.73
2018-12-30T05:42:50.688Z,8.73
2018-12-30T05:43:50.478Z,8.74
2018-12-30T05:44:50.214Z,8.76
2018-12-30T05:45:50.485Z,8.73
2018-12-30T05:46:50.765Z,8.74
2018-12-30T05:47:50.515Z,8.71
2018-12-30T05:48:50.802Z,8.7
2018-12-30T05:49:50.564Z,8.7
2018-12-30T05:50:50.572Z,8.71
2018-12-30T05:51:50.608Z,8.7
2018-12-30T05:52:50.861Z,8.7
2018-12-30T05:53:50.373Z,8.69
2018-12-30T05:54:50.382Z,8.67
2018-12-30T05:55:50.658Z,8.64
2018-12-30T05:56:50.962Z,8.64
2018-12-30T05:57:50.464Z,8.64
2018-12-30T05:58:50.985Z,8.73
2018-12-30T05:59:50.759Z,8.73
2018-12-30T06:00:50.762Z,8.7
2018-12-30T06:01:50.504Z,8.66
2018-12-30T06:02:51.050Z,8.69
2018-12-30T06:03:50.551Z,8.63
2018-12-30T06:04:51.107Z,8.71
2018-12-30T06:05:50.852Z,8.7
2018-12-30T06:06:50.872Z,8.7
2018-12-30T06:07:51.129Z,8.69
2018-12-30T06:08:50.897Z,8.73
2018-12-30T06:09:50.661Z,8.69
2018-12-30T06:10:50.678Z,8.74
2018-12-30T06:11:51.032Z,8.64
2018-12-30T06:12:50.963Z,8.66
2018-12-30T06:13:51.080Z,8.63
2018-12-30T06:14:50.748Z,8.71
2018-12-30T06:15:50.774Z,8.7
2018-12-30T06:16:51.038Z,8.64
2018-12-30T06:17:51.327Z,8.71
2018-12-30T06:18:51.075Z,8.73
2018-12-30T06:19:50.839Z,8.7
2018-12-30T06:20:51.129Z,8.7
2018-12-30T06:21:51.145Z,8.69
2018-12-30T06:22:54.627Z,8.71
2018-12-30T06:23:51.436Z,8.61
2018-12-30T06:24:50.945Z,8.7
2018-12-30T06:25:50.946Z,8.63
2018-12-30T06:26:51.490Z,8.69
2018-12-30T06:27:51.254Z,8.69
2018-12-30T06:28:51.519Z,8.64
2018-12-30T06:29:51.278Z,8.7
2018-12-30T06:30:51.306Z,8.64
2018-12-30T06:31:51.317Z,8.66
2018-12-30T06:32:52.430Z,8.66
2018-12-30T06:33:51.625Z,8.67
2018-12-30T06:34:51.113Z,8.69
2018-12-30T06:35:51.393Z,8.67
2018-12-30T06:36:51.412Z,8.66
2018-12-30T06:37:51.165Z,8.71
2018-12-30T06:38:51.434Z,8.64
2018-12-30T06:39:51.204Z,8.69
2018-12-30T06:40:51.464Z,8.63
2018-12-30T06:41:51.776Z,8.66
2018-12-30T06:42:51.529Z,8.76
2018-12-30T06:43:51.523Z,8.66
2018-12-30T06:44:51.291Z,8.7
2018-12-30T06:45:51.560Z,8.64
2018-12-30T06:46:51.335Z,8.7
2018-12-30T06:47:51.868Z,8.64
2018-12-30T06:48:51.628Z,8.61
2018-12-30T06:49:51.638Z,8.66
2018-12-30T06:50:51.666Z,8.6
2018-12-30T06:51:51.408Z,8.63
2018-12-30T06:52:57.477Z,8.67
2018-12-30T06:53:51.713Z,8.67
2018-12-30T06:54:51.996Z,8.56
2018-12-30T06:55:51.491Z,8.56
2018-12-30T06:56:51.759Z,8.58
2018-12-30T06:57:51.523Z,8.61
2018-12-30T06:58:51.795Z,8.61
2018-12-30T06:59:52.077Z,8.6
2018-12-30T07:00:51.577Z,8.6
2018-12-30T07:01:52.134Z,8.64
2018-12-30T07:02:51.890Z,8.69
2018-12-30T07:03:51.906Z,8.56
2018-12-30T07:04:51.927Z,8.61
2018-12-30T07:05:51.670Z,8.64
2018-12-30T07:06:52.194Z,8.6
2018-12-30T07:07:51.707Z,8.6
2018-12-30T07:08:51.988Z,8.61
2018-12-30T07:09:52.281Z,8.63
2018-12-30T07:10:52.019Z,8.66
2018-12-30T07:11:52.035Z,8.6
2018-12-30T07:12:51.789Z,8.6
2018-12-30T07:13:52.076Z,8.58
2018-12-30T07:14:51.844Z,8.61
2018-12-30T07:15:52.384Z,8.61
2018-12-30T07:16:51.859Z,8.64
2018-12-30T07:17:52.158Z,8.67
2018-12-30T07:18:51.891Z,8.63
2018-12-30T07:19:52.195Z,8.64
2018-12-30T07:20:52.198Z,8.56
2018-12-30T07:21:51.955Z,8.61
2018-12-30T07:22:51.969Z,8.7
2018-12-30T07:23:52.001Z,8.67
2018-12-30T07:24:52.258Z,8.64
2018-12-30T07:25:52.281Z,8.61
2018-12-30T07:26:52.052Z,8.58
2018-12-30T07:27:52.328Z,8.58
2018-12-30T07:28:52.603Z,8.74
2018-12-30T07:29:52.096Z,8.56
2018-12-30T07:30:52.387Z,8.6
2018-12-30T07:31:52.392Z,8.58
2018-12-30T07:32:52.400Z,8.61
2018-12-30T07:33:52.422Z,8.61
2018-12-30T07:34:52.195Z,8.58
2018-12-30T07:35:52.555Z,8.58
2018-12-30T07:36:52.743Z,8.64
2018-12-30T07:37:52.249Z,8.67
2018-12-30T07:38:54.142Z,8.67
2018-12-30T07:39:52.541Z,8.66
2018-12-30T07:40:52.575Z,8.61
2018-12-30T07:41:52.628Z,8.61
2018-12-30T07:42:52.335Z,8.64
2018-12-30T07:43:52.622Z,8.58
2018-12-30T07:44:52.905Z,8.61
2018-12-30T07:45:52.387Z,8.61
2018-12-30T07:46:52.680Z,8.56
2018-12-30T07:47:52.422Z,8.64
2018-12-30T07:48:52.961Z,8.63
2018-12-30T07:49:52.450Z,8.67
2018-12-30T07:50:52.741Z,8.58
2018-12-30T07:51:52.757Z,8.63
2018-12-30T07:52:52.771Z,8.6
2018-12-30T07:53:52.808Z,8.6
2018-12-30T07:54:52.806Z,8.58
2018-12-30T07:55:52.826Z,8.58
2018-12-30T07:56:53.090Z,8.64
2018-12-30T07:57:52.599Z,8.64
2018-12-30T07:58:52.894Z,8.53
2018-12-30T07:59:52.641Z,8.58
2018-12-30T08:00:53.164Z,8.58
2018-12-30T08:01:52.930Z,8.58
2018-12-30T08:02:52.693Z,8.67
2018-12-30T08:03:52.702Z,8.58
2018-12-30T08:04:52.734Z,8.56
2018-12-30T08:05:52.761Z,8.67
2018-12-30T08:06:53.291Z,8.67
2018-12-30T08:07:53.090Z,8.69
2018-12-30T08:08:53.072Z,8.61
2018-12-30T08:09:53.347Z,8.63
2018-12-30T08:10:53.110Z,8.63
2018-12-30T08:11:52.871Z,8.66
2018-12-30T08:12:52.877Z,8.66
2018-12-30T08:13:53.419Z,8.71
2018-12-30T08:14:53.168Z,8.67
2018-12-30T08:15:53.924Z,8.67
2018-12-30T08:16:52.949Z,8.63
2018-12-30T08:17:53.218Z,8.63
2018-12-30T08:18:53.235Z,8.67
2018-12-30T08:19:53.009Z,8.61
2018-12-30T08:20:53.270Z,8.66
2018-12-30T08:21:53.300Z,8.7
2018-12-30T08:22:53.057Z,8.64
2018-12-30T08:23:53.329Z,8.7
2018-12-30T08:24:53.354Z,8.71
2018-12-30T08:25:53.366Z,8.69
2018-12-30T08:26:53.384Z,8.67
2018-12-30T08:27:53.151Z,8.66
2018-12-30T08:28:53.424Z,8.64
2018-12-30T08:29:53.699Z,8.69
2018-12-30T08:30:53.201Z,8.69
2018-12-30T08:31:53.487Z,8.7
2018-12-30T08:32:53.508Z,8.71
2018-12-30T08:33:53.266Z,8.76
2018-12-30T08:34:53.544Z,8.74
2018-12-30T08:35:53.540Z,8.69
2018-12-30T08:36:53.578Z,8.73
2018-12-30T08:37:53.331Z,8.78
2018-12-30T08:38:53.616Z,8.69
2018-12-30T08:39:53.381Z,8.74
2018-12-30T08:40:53.370Z,8.79
2018-12-30T08:41:53.923Z,8.76
2018-12-30T08:42:53.735Z,8.87
2018-12-30T08:43:53.431Z,8.87
2018-12-30T08:44:53.461Z,8.76
2018-12-30T08:45:53.719Z,8.76
2018-12-30T08:46:53.503Z,8.85
2018-12-30T08:47:53.764Z,8.91
2018-12-30T08:48:54.684Z,8.88
2018-12-30T08:49:53.807Z,8.92
2018-12-30T08:50:53.817Z,8.89
2018-12-30T08:51:53.578Z,8.91
2018-12-30T08:52:53.870Z,8.94
2018-12-30T08:53:53.868Z,8.91
2018-12-30T08:54:53.892Z,8.92
2018-12-30T08:55:53.722Z,8.95
2018-12-30T08:56:53.670Z,8.95
2018-12-30T08:57:53.933Z,8.88
2018-12-30T08:58:53.974Z,8.95
2018-12-30T08:59:53.999Z,8.92
2018-12-30T09:00:54.007Z,8.94
2018-12-30T09:01:53.763Z,8.91
2018-12-30T09:02:54.074Z,8.91
2018-12-30T09:03:54.317Z,9.02
2018-12-30T09:04:54.340Z,8.99
2018-12-30T09:05:54.111Z,9.02
2018-12-30T09:06:54.578Z,8.95
2018-12-30T09:07:54.200Z,9.03
2018-12-30T09:08:53.901Z,9.04
2018-12-30T09:09:54.160Z,9
2018-12-30T09:10:55.250Z,8.99
2018-12-30T09:11:54.209Z,8.97
2018-12-30T09:12:54.207Z,9
2018-12-30T09:13:53.979Z,9.03
2018-12-30T09:14:53.992Z,9.03
2018-12-30T09:15:54.269Z,8.94
2018-12-30T09:16:54.292Z,8.99
2018-12-30T09:17:54.578Z,8.94
2018-12-30T09:18:54.320Z,9.03
2018-12-30T09:19:54.339Z,8.97
2018-12-30T09:20:54.623Z,8.91
2018-12-30T09:21:54.117Z,8.94
2018-12-30T09:22:54.543Z,9.03
2018-12-30T09:23:54.430Z,9
2018-12-30T09:24:54.216Z,9
2018-12-30T09:25:54.186Z,9
2018-12-30T09:26:54.463Z,8.97
2018-12-30T09:27:54.529Z,9.02
2018-12-30T09:28:54.502Z,9
2018-12-30T09:29:54.544Z,9.06
2018-12-30T09:30:54.286Z,8.99
2018-12-30T09:31:54.572Z,9.08
2018-12-30T09:32:54.317Z,8.94
2018-12-30T09:33:54.336Z,9.08
2018-12-30T09:34:54.361Z,9.03
2018-12-30T09:35:54.624Z,9.02
2018-12-30T09:36:55.836Z,8.99
2018-12-30T09:37:54.658Z,9.04
2018-12-30T09:38:54.439Z,8.99
2018-12-30T09:39:54.456Z,9.02
2018-12-30T09:40:54.995Z,9.03
2018-12-30T09:41:54.473Z,8.97
2018-12-30T09:42:54.762Z,9.04
2018-12-30T09:43:54.534Z,8.92
2018-12-30T09:44:55.076Z,8.99
2018-12-30T09:45:54.830Z,9.02
2018-12-30T09:46:54.584Z,9.02
2018-12-30T09:47:54.972Z,9.03
2018-12-30T09:48:54.655Z,9
2018-12-30T09:49:55.134Z,8.94
2018-12-30T09:50:54.642Z,9.03
2018-12-30T09:51:54.647Z,9.04
2018-12-30T09:52:54.924Z,9
2018-12-30T09:53:54.955Z,9.06
2018-12-30T09:54:54.707Z,9.06
2018-12-30T09:55:54.995Z,9.1
2018-12-30T09:56:55.001Z,8.99
2018-12-30T09:57:55.100Z,9.1
2018-12-30T09:58:55.056Z,9.06
2018-12-30T09:59:54.815Z,9.18
2018-12-30T10:00:55.091Z,9.06
2018-12-30T10:01:54.845Z,9.19
2018-12-30T10:02:55.174Z,9.22
2018-12-30T10:03:55.124Z,9.22
2018-12-30T10:04:54.900Z,9.18
2018-12-30T10:05:55.177Z,9.23
2018-12-30T10:06:54.928Z,9.29
2018-12-30T10:07:55.467Z,9.21
2018-12-30T10:08:55.224Z,9.28
2018-12-30T10:09:55.517Z,9.32
2018-12-30T10:10:55.269Z,9.26
2018-12-30T10:11:55.012Z,9.32
2018-12-30T10:12:55.309Z,9.29
2018-12-30T10:13:55.579Z,9.29
2018-12-30T10:14:55.351Z,9.4
2018-12-30T10:15:55.101Z,9.36
2018-12-30T10:16:55.378Z,9.46
2018-12-30T10:17:55.380Z,9.4
2018-12-30T10:18:55.416Z,9.5
2018-12-30T10:19:55.419Z,9.43
2018-12-30T10:20:55.696Z,9.44
2018-12-30T10:21:55.550Z,9.37
2018-12-30T10:23:03.375Z,9.51
2018-12-30T10:23:57.812Z,9.54
2018-12-30T10:24:55.262Z,9.47
2018-12-30T10:25:55.532Z,9.51
2018-12-30T10:26:55.568Z,9.54
2018-12-30T10:27:55.310Z,9.51
2018-12-30T10:28:55.894Z,9.56
2018-12-30T10:29:55.883Z,9.54
2018-12-30T10:30:55.887Z,9.61
2018-12-30T10:31:55.653Z,9.54
2018-12-30T10:32:55.649Z,9.56
2018-12-30T10:33:55.675Z,9.65
2018-12-30T10:34:55.703Z,9.58
2018-12-30T10:35:55.718Z,9.59
2018-12-30T10:36:55.471Z,9.65
2018-12-30T10:37:55.734Z,9.68
2018-12-30T10:38:55.762Z,9.76
2018-12-30T10:39:55.526Z,9.69
2018-12-30T10:40:55.551Z,9.8
2018-12-30T10:41:57.206Z,9.76
2018-12-30T10:42:56.105Z,9.8
2018-12-30T10:43:55.860Z,9.79
2018-12-30T10:44:55.865Z,9.77
2018-12-30T10:45:56.148Z,9.76
2018-12-30T10:46:55.918Z,9.74
2018-12-30T10:47:55.945Z,9.76
2018-12-30T10:48:55.996Z,9.82
2018-12-30T10:49:56.225Z,9.77
2018-12-30T10:50:55.724Z,9.74
2018-12-30T10:51:56.019Z,9.8
2018-12-30T10:52:56.025Z,9.79
2018-12-30T10:54:02.804Z,9.79
2018-12-30T10:54:56.065Z,9.73
2018-12-30T10:55:55.817Z,9.77
2018-12-30T10:56:55.849Z,9.76
2018-12-30T10:57:56.162Z,9.74
2018-12-30T10:58:56.146Z,9.72
2018-12-30T10:59:55.880Z,9.91
2018-12-30T11:00:56.167Z,9.92
2018-12-30T11:01:55.911Z,9.89
2018-12-30T11:02:55.932Z,9.89
2018-12-30T11:03:56.258Z,9.89
2018-12-30T11:04:55.974Z,9.92
2018-12-30T11:05:56.006Z,9.97
2018-12-30T11:06:56.271Z,9.94
2018-12-30T11:07:56.547Z,9.95
2018-12-30T11:08:56.301Z,9.94
2018-12-30T11:09:56.338Z,9.94
2018-12-30T11:10:56.088Z,9.92
2018-12-30T11:11:56.363Z,9.91
2018-12-30T11:12:56.133Z,10.01
2018-12-30T11:13:56.148Z,10.01
2018-12-30T11:14:56.411Z,9.92
2018-12-30T11:15:56.711Z,9.91
2018-12-30T11:16:56.455Z,9.98
2018-12-30T11:17:56.460Z,9.91
2018-12-30T11:18:56.539Z,9.91
2018-12-30T11:19:56.502Z,9.87
2018-12-30T11:20:56.541Z,9.98
2018-12-30T11:21:56.561Z,9.95
2018-12-30T11:22:56.576Z,9.98
2018-12-30T11:23:56.414Z,9.87
2018-12-30T11:24:56.610Z,9.84
2018-12-30T11:25:56.878Z,9.91
2018-12-30T11:26:56.393Z,9.91
2018-12-30T11:27:56.402Z,9.92
2018-12-30T11:28:56.665Z,9.86
2018-12-30T11:29:56.684Z,9.84
2018-12-30T11:30:56.725Z,9.74
2018-12-30T11:31:56.995Z,9.84
2018-12-30T11:32:57.006Z,9.87
2018-12-30T11:33:56.516Z,9.89
2018-12-30T11:34:57.050Z,9.86
2018-12-30T11:35:56.791Z,9.86
2018-12-30T11:36:57.081Z,9.83
2018-12-30T11:37:56.575Z,9.83
2018-12-30T11:38:56.927Z,9.91
2018-12-30T11:39:56.891Z,9.89
2018-12-30T11:40:56.888Z,9.91
2018-12-30T11:41:57.098Z,9.87
2018-12-30T11:42:56.916Z,9.83
2018-12-30T11:43:56.999Z,9.84
2018-12-30T11:44:56.962Z,9.89
2018-12-30T11:45:56.725Z,9.86
2018-12-30T11:46:57.003Z,9.73
2018-12-30T11:47:57.030Z,9.74
2018-12-30T11:48:56.783Z,9.76
2018-12-30T11:49:57.061Z,9.8
2018-12-30T11:50:57.340Z,9.72
2018-12-30T11:51:57.087Z,9.76
2018-12-30T11:52:57.119Z,9.77
2018-12-30T11:53:57.405Z,9.76
2018-12-30T11:54:57.140Z,9.84
2018-12-30T11:55:57.155Z,9.87
2018-12-30T11:56:57.195Z,9.87
2018-12-30T11:57:57.451Z,9.86
2018-12-30T11:58:57.287Z,9.89
2018-12-30T11:59:56.990Z,9.94
2018-12-30T12:00:56.998Z,10.01
2018-12-30T12:01:57.279Z,10.05
2018-12-30T12:02:57.307Z,10.09
2018-12-30T12:03:57.105Z,10.07
2018-12-30T12:04:57.357Z,10.04
2018-12-30T12:05:57.351Z,10.02
2018-12-30T12:06:57.360Z,10.02
2018-12-30T12:07:57.392Z,10.01
2018-12-30T12:08:57.407Z,9.98
2018-12-30T12:09:57.263Z,10.07
2018-12-30T12:10:57.197Z,9.99
2018-12-30T12:11:57.453Z,10.09
2018-12-30T12:12:57.484Z,10.09
2018-12-30T12:13:57.503Z,9.98
2018-12-30T12:14:57.518Z,10.05
2018-12-30T12:15:57.276Z,10.01
2018-12-30T12:16:57.551Z,10.02
2018-12-30T12:17:57.299Z,9.89
2018-12-30T12:18:57.626Z,10.02
2018-12-30T12:19:57.341Z,9.99
2018-12-30T12:20:57.636Z,9.94
2018-12-30T12:21:57.645Z,9.91
2018-12-30T12:22:57.920Z,9.94
2018-12-30T12:23:57.995Z,10.01
2018-12-30T12:24:57.711Z,9.95
2018-12-30T12:25:57.728Z,9.98
2018-12-30T12:26:57.733Z,10.01
2018-12-30T12:27:57.508Z,10.01
2018-12-30T12:28:57.758Z,10.09
2018-12-30T12:29:57.532Z,10.09
2018-12-30T12:30:57.800Z,9.95
2018-12-30T12:31:58.105Z,10.1
2018-12-30T12:32:57.576Z,10.07
2018-12-30T12:33:57.863Z,10.04
2018-12-30T12:34:58.140Z,10.07
2018-12-30T12:35:57.909Z,10.07
2018-12-30T12:36:58.008Z,9.99
2018-12-30T12:37:57.691Z,10.09
2018-12-30T12:38:57.748Z,10.07
2018-12-30T12:39:57.975Z,10.01
2018-12-30T12:40:58.256Z,10.02
2018-12-30T12:41:57.760Z,10.02
2018-12-30T12:42:58.305Z,10.12
2018-12-30T12:43:57.845Z,10.15
2018-12-30T12:44:58.067Z,10.15
2018-12-30T12:45:57.825Z,10.1
2018-12-30T12:46:58.099Z,10.09
2018-12-30T12:47:58.120Z,10.2
2018-12-30T12:48:57.874Z,10.15
2018-12-30T12:49:57.902Z,10.07
2018-12-30T12:50:58.180Z,10.15
2018-12-30T12:51:58.203Z,10.09
2018-12-30T12:52:58.213Z,10.15
2018-12-30T12:53:57.975Z,10.04
2018-12-30T12:54:58.246Z,10.07
2018-12-30T12:55:58.406Z,10.09
2018-12-30T12:56:58.297Z,10.15
2018-12-30T12:57:58.322Z,10.1
2018-12-30T12:58:58.640Z,10.07
2018-12-30T12:59:58.616Z,10.13
2018-12-30T13:00:58.109Z,10.13
2018-12-30T13:01:58.393Z,10.07
2018-12-30T13:02:58.390Z,10.04
2018-12-30T13:03:58.476Z,10.01
2018-12-30T13:04:58.439Z,10.05
2018-12-30T13:05:58.205Z,10.04
2018-12-30T13:06:58.729Z,10.04
2018-12-30T13:07:58.492Z,10.1
2018-12-30T13:08:58.521Z,10.09
2018-12-30T13:09:58.786Z,10.09
2018-12-30T13:10:58.807Z,10.05
2018-12-30T13:11:58.311Z,10.01
2018-12-30T13:12:58.589Z,9.98
2018-12-30T13:13:58.594Z,10.05
2018-12-30T13:14:58.883Z,10.02
2018-12-30T13:16:05.468Z,10.04
2018-12-30T13:16:58.659Z,9.98
2018-12-30T13:17:58.666Z,9.99
2018-12-30T13:18:58.765Z,10.02
2018-12-30T13:19:58.448Z,9.97